createdAt,value
2019-04-11T00:01:00.269Z,101421.05
2019-04-11T00:03:29.233Z,101425.22
2019-04-11T00:05:57.468Z,101423.02
2019-04-11T00:08:26.027Z,101427.58
2019-04-11T00:10:55.478Z,101422.31
2019-04-11T00:13:26.721Z,101426.02
2019-04-11T00:15:53.703Z,101425.45
2019-04-11T00:18:22.869Z,101426.68
2019-04-11T00:20:54.109Z,101428.80
2019-04-11T00:23:22.316Z,101428.80
2019-04-11T00:25:51.617Z,101424.81
2019-04-11T00:28:20.065Z,101419.58
2019-04-11T00:30:48.414Z,101423.75
2019-04-11T00:33:16.553Z,101426.85
2019-04-11T00:35:45.946Z,101427.58
2019-04-11T00:38:14.338Z,101423.69
2019-04-11T00:40:43.672Z,101423.75
2019-04-11T00:43:12.032Z,101425.23
2019-04-11T00:45:40.248Z,101427.83
2019-04-11T00:48:09.246Z,101420.86
2019-04-11T00:50:37.559Z,101420.27
2019-04-11T00:53:05.772Z,101430.52
2019-04-11T00:55:33.963Z,101438.22
2019-04-11T00:58:03.422Z,101428.23
2019-04-11T01:00:31.765Z,101437.21
2019-04-11T01:03:00.055Z,101434.17
2019-04-11T01:05:28.289Z,101429.33
2019-04-11T01:07:57.662Z,101434.97
2019-04-11T01:10:26.560Z,101437.48
2019-04-11T01:12:54.760Z,101437.32
2019-04-11T01:15:24.477Z,101431.17
2019-04-11T01:17:53.797Z,101439.63
2019-04-11T01:20:22.254Z,101435.30
2019-04-11T01:22:50.793Z,101439.36
2019-04-11T01:25:20.047Z,101439.44
2019-04-11T01:27:48.380Z,101438.23
2019-04-11T01:30:19.132Z,101434.28
2019-04-11T01:32:47.332Z,101437.56
2019-04-11T01:35:15.552Z,101442.90
2019-04-11T01:37:44.025Z,101442.13
2019-04-11T01:40:12.204Z,101444.53
2019-04-11T01:42:41.672Z,101442.78
2019-04-11T01:45:10.008Z,101442.71
2019-04-11T01:47:39.879Z,101446.84
2019-04-11T01:50:08.522Z,101451.91
2019-04-11T01:52:36.853Z,101450.09
2019-04-11T01:55:05.206Z,101446.36
2019-04-11T01:57:33.951Z,101450.09
2019-04-11T02:00:02.341Z,101452.72
2019-04-11T02:02:47.018Z,101448.34
2019-04-11T02:05:31.252Z,101454.27
2019-04-11T02:07:59.420Z,101455.73
2019-04-11T02:10:28.711Z,101462.27
2019-04-11T02:12:57.015Z,101464.51
2019-04-11T02:15:28.160Z,101465.58
2019-04-11T02:17:57.247Z,101469.59
2019-04-11T02:20:25.590Z,101476.30
2019-04-11T02:23:07.262Z,101473.40
2019-04-11T02:25:46.979Z,101474.23
2019-04-11T02:28:16.981Z,101479.16
2019-04-11T02:30:48.408Z,101483.69
2019-04-11T02:33:18.355Z,101473.69
2019-04-11T02:35:49.222Z,101482.72
2019-04-11T02:38:19.035Z,101476.36
2019-04-11T02:40:49.313Z,101446.95
2019-04-11T02:43:17.877Z,101477.85
2019-04-11T02:45:58.236Z,101483.20
2019-04-11T02:48:16.352Z,101479.77
2019-04-11T02:50:45.897Z,101481.72
2019-04-11T02:53:14.784Z,101493.17
2019-04-11T02:55:43.855Z,101486.44
2019-04-11T02:58:13.057Z,101491.22
2019-04-11T03:00:44.572Z,101500.41
2019-04-11T03:03:13.086Z,101493.27
2019-04-11T03:05:42.048Z,101491.58
2019-04-11T03:08:15.681Z,101491.67
2019-04-11T03:10:42.866Z,101495.08
2019-04-11T03:13:12.678Z,101491.06
2019-04-11T03:15:57.333Z,101495.45
2019-04-11T03:18:18.510Z,101495.48
2019-04-11T03:20:48.052Z,101491.52
2019-04-11T03:23:14.430Z,101498.34
2019-04-11T03:25:40.783Z,101498.99
2019-04-11T03:28:14.864Z,101501.52
2019-04-11T03:31:01.881Z,101500.84
2019-04-11T03:34:06.000Z,101497.23
2019-04-11T03:38:34.804Z,101507.72
2019-04-11T03:40:59.594Z,101502.17
2019-04-11T03:43:24.253Z,101510.73
2019-04-11T03:46:02.100Z,101504.20
2019-04-11T03:48:21.916Z,101516.28
2019-04-11T03:50:39.975Z,101513.25
2019-04-11T03:53:10.924Z,101509.53
2019-04-11T03:55:39.059Z,101512.67
2019-04-11T03:58:08.579Z,101520.22
2019-04-11T04:00:41.191Z,101517.91
2019-04-11T04:03:08.970Z,101525.37
2019-04-11T04:05:39.003Z,101516.62
2019-04-11T04:08:08.554Z,101520.19
2019-04-11T04:10:39.523Z,101523.72
2019-04-11T04:13:14.173Z,101525.73
2019-04-11T04:15:54.086Z,101526.48
2019-04-11T04:18:19.114Z,101522.70
2019-04-11T04:20:49.183Z,101532.34
2019-04-11T04:23:19.508Z,101526.84
2019-04-11T04:25:51.661Z,101531.65
2019-04-11T04:28:21.463Z,101531.19
2019-04-11T04:30:51.587Z,101535.37
2019-04-11T04:33:22.049Z,101538.91
2019-04-11T04:35:56.103Z,101541.23
2019-04-11T04:38:24.898Z,101542.49
2019-04-11T04:41:07.413Z,101543.20
2019-04-11T04:43:23.051Z,101539.63
2019-04-11T04:46:08.601Z,101549.30
2019-04-11T04:48:24.684Z,101555.37
2019-04-11T04:50:54.411Z,101553.53
2019-04-11T04:53:23.497Z,101560.02
2019-04-11T04:55:52.801Z,101563.59
2019-04-11T04:58:34.384Z,101562.27
2019-04-11T05:01:04.201Z,101562.91
2019-04-11T05:03:34.279Z,101570.53
2019-04-11T05:06:04.296Z,101568.87
2019-04-11T05:08:32.707Z,101570.86
2019-04-11T05:11:02.185Z,101570.39
2019-04-11T05:13:32.211Z,101570.39
2019-04-11T05:16:11.011Z,101585.94
2019-04-11T05:18:30.575Z,101584.18
2019-04-11T05:20:59.034Z,101585.28
2019-04-11T05:23:27.679Z,101586.84
2019-04-11T05:25:56.914Z,101588.33
2019-04-11T05:28:25.491Z,101588.59
2019-04-11T05:30:53.763Z,101597.05
2019-04-11T05:33:22.946Z,101598.96
2019-04-11T05:35:52.137Z,101601.08
2019-04-11T05:38:21.300Z,101600.28
2019-04-11T05:40:50.308Z,101591.36
2019-04-11T05:43:19.646Z,101596.28
2019-04-11T05:45:52.225Z,101598.73
2019-04-11T05:48:36.789Z,101598.13
2019-04-11T05:51:05.046Z,101600.71
2019-04-11T05:53:36.183Z,101605.45
2019-04-11T05:56:07.082Z,101605.36
2019-04-11T05:58:36.650Z,101610.32
2019-04-11T06:01:15.889Z,101608.75
2019-04-11T06:03:45.498Z,101609.40
2019-04-11T06:06:31.965Z,101612.21
2019-04-11T06:09:00.744Z,101610.78
2019-04-11T06:11:34.895Z,101615.34
2019-04-11T06:14:05.786Z,101614.92
2019-04-11T06:16:43.609Z,101620.56
2019-04-11T06:19:14.367Z,101619.06
2019-04-11T06:21:47.010Z,101627.00
2019-04-11T06:24:25.982Z,101627.27
2019-04-11T06:26:56.873Z,101625.91
2019-04-11T06:29:28.376Z,101620.22
2019-04-11T06:32:15.904Z,101625.01
2019-04-11T06:34:46.978Z,101628.29
2019-04-11T06:37:17.233Z,101629.09
2019-04-11T06:39:50.021Z,101639.59
2019-04-11T06:42:19.879Z,101632.13
2019-04-11T06:44:56.398Z,101637.00
2019-04-11T06:47:41.349Z,101636.80
2019-04-11T06:50:11.175Z,101631.25
2019-04-11T06:52:41.287Z,101632.38
2019-04-11T06:55:14.871Z,101638.53
2019-04-11T06:57:45.894Z,101638.23
2019-04-11T07:00:16.970Z,101633.50
2019-04-11T07:03:03.579Z,101634.73
2019-04-11T07:05:33.428Z,101632.36
2019-04-11T07:08:03.393Z,101635.94
2019-04-11T07:10:34.127Z,101634.84
2019-04-11T07:13:07.839Z,101629.80
2019-04-11T07:15:37.760Z,101632.14
2019-04-11T07:18:24.799Z,101639.52
2019-04-11T07:20:54.734Z,101636.48
2019-04-11T07:23:43.991Z,101633.23
2019-04-11T07:26:15.025Z,101634.20
2019-04-11T07:28:44.895Z,101639.95
2019-04-11T07:31:21.563Z,101637.11
2019-04-11T07:33:51.879Z,101646.69
2019-04-11T07:36:38.403Z,101642.17
2019-04-11T07:39:09.927Z,101638.41
2019-04-11T07:41:43.875Z,101641.62
2019-04-11T07:44:21.808Z,101646.14
2019-04-11T07:46:51.726Z,101651.45
2019-04-11T07:49:21.575Z,101656.30
2019-04-11T07:51:58.157Z,101654.26
2019-04-11T07:54:26.405Z,101652.69
2019-04-11T07:56:58.763Z,101656.79
2019-04-11T07:59:29.517Z,101558.96
2019-04-11T08:02:05.859Z,101651.98
2019-04-11T08:04:36.483Z,101653.02
2019-04-11T08:07:22.821Z,101648.73
2019-04-11T08:10:04.442Z,101649.73
2019-04-11T08:12:34.283Z,101654.27
2019-04-11T08:15:19.633Z,101651.75
2019-04-11T08:17:48.101Z,101657.94
2019-04-11T08:20:39.563Z,101548.64
2019-04-11T08:23:07.856Z,101658.19
2019-04-11T08:25:53.678Z,101657.95
2019-04-11T08:28:21.882Z,101653.86
2019-04-11T08:31:11.024Z,101659.66
2019-04-11T08:33:40.467Z,101665.30
2019-04-11T08:36:16.368Z,101662.39
2019-04-11T08:38:53.296Z,101660.78
2019-04-11T08:41:31.857Z,101664.37
2019-04-11T08:44:01.521Z,101660.02
2019-04-11T08:46:35.148Z,101659.30
2019-04-11T08:49:11.282Z,101670.13
2019-04-11T08:51:41.136Z,101663.82
2019-04-11T08:54:11.181Z,101666.05
2019-04-11T08:56:41.114Z,101663.89
2019-04-11T08:59:13.538Z,101654.52
2019-04-11T09:01:42.832Z,101655.44
2019-04-11T09:04:14.112Z,101659.86
2019-04-11T09:06:42.999Z,101660.23
2019-04-11T09:09:15.652Z,101653.78
2019-04-11T09:11:47.109Z,101666.02
2019-04-11T09:14:32.757Z,101659.09
2019-04-11T09:17:19.397Z,101663.13
2019-04-11T09:19:49.446Z,101663.15
2019-04-11T09:22:20.572Z,101664.09
2019-04-11T09:25:07.328Z,101661.06
2019-04-11T09:27:54.464Z,101662.80
2019-04-11T09:30:25.371Z,101662.84
2019-04-11T09:32:58.270Z,101658.51
2019-04-11T09:35:34.003Z,101659.36
2019-04-11T09:38:04.370Z,101659.40
2019-04-11T09:40:52.175Z,101660.26
2019-04-11T09:43:28.253Z,101661.13
2019-04-11T09:46:01.944Z,101655.05
2019-04-11T09:48:48.439Z,101646.29
2019-04-11T09:51:35.882Z,101653.69
2019-04-11T09:54:18.269Z,101657.62
2019-04-11T09:56:48.300Z,101647.17
2019-04-11T09:59:18.140Z,101648.27
2019-04-11T10:01:47.993Z,101653.00
2019-04-11T10:04:18.836Z,101646.00
2019-04-11T10:06:48.871Z,101640.58
2019-04-11T10:09:17.088Z,101649.23
2019-04-11T10:12:04.434Z,101644.98
2019-04-11T10:14:33.465Z,101641.85
2019-04-11T10:17:22.728Z,101640.01
2019-04-11T10:19:49.894Z,101635.03
2019-04-11T10:22:32.089Z,101633.77
2019-04-11T10:25:03.236Z,101632.80
2019-04-11T10:27:36.434Z,101635.89
2019-04-11T10:30:10.305Z,101635.07
2019-04-11T10:32:41.326Z,101637.49
2019-04-11T10:35:12.193Z,101645.67
2019-04-11T10:37:42.238Z,101632.09
2019-04-11T10:40:17.797Z,101643.23
2019-04-11T10:42:48.773Z,101633.02
2019-04-11T10:45:27.406Z,101641.94
2019-04-11T10:47:55.987Z,101647.77
2019-04-11T10:50:42.384Z,101656.48
2019-04-11T10:53:13.026Z,101648.77
2019-04-11T10:55:51.954Z,101643.64
2019-04-11T10:58:21.787Z,101628.29
2019-04-11T11:01:01.827Z,101631.47
2019-04-11T11:03:31.745Z,101630.04
2019-04-11T11:06:05.440Z,101638.13
2019-04-11T11:08:37.964Z,101626.64
2019-04-11T11:11:20.541Z,101640.42
2019-04-11T11:14:05.354Z,101639.66
2019-04-11T11:16:39.404Z,101632.36
2019-04-11T11:19:38.485Z,101636.45
2019-04-11T11:21:42.993Z,101635.40
2019-04-11T11:24:28.927Z,101635.95
2019-04-11T11:26:58.784Z,101632.30
2019-04-11T11:29:32.453Z,101637.88
2019-04-11T11:32:03.059Z,101639.55
2019-04-11T11:34:36.736Z,101639.95
2019-04-11T11:37:23.203Z,101643.30
2019-04-11T11:40:17.999Z,101647.93
2019-04-11T11:42:50.564Z,101641.61
2019-04-11T11:45:35.481Z,101641.78
2019-04-11T11:48:08.860Z,101644.56
2019-04-11T11:50:36.036Z,101635.31
2019-04-11T11:53:22.699Z,101626.52
2019-04-11T11:55:53.642Z,101633.13
2019-04-11T11:58:29.969Z,101635.62
2019-04-11T12:01:03.602Z,101636.03
2019-04-11T12:03:35.080Z,101635.38
2019-04-11T12:06:05.398Z,101627.27
2019-04-11T12:08:45.309Z,101632.88
2019-04-11T12:11:11.097Z,101636.00
2019-04-11T12:13:47.472Z,101632.09
2019-04-11T12:16:21.445Z,101634.79
2019-04-11T12:19:00.875Z,101635.12
2019-04-11T12:21:31.395Z,101638.84
2019-04-11T12:24:08.156Z,101632.22
2019-04-11T12:26:38.245Z,101637.66
2019-04-11T12:29:21.865Z,101638.58
2019-04-11T12:31:52.309Z,101626.14
2019-04-11T12:34:38.752Z,101619.50
2019-04-11T12:37:08.715Z,101615.91
2019-04-11T12:39:44.433Z,101614.66
2019-04-11T12:42:20.044Z,101628.67
2019-04-11T12:45:06.580Z,101620.53
2019-04-11T12:47:38.297Z,101623.20
2019-04-11T12:50:23.364Z,101611.53
2019-04-11T12:52:53.234Z,101617.23
2019-04-11T12:55:32.029Z,101617.36
2019-04-11T12:58:19.828Z,101609.44
2019-04-11T13:00:58.957Z,101601.37
2019-04-11T13:03:45.343Z,101604.77
2019-04-11T13:06:35.637Z,101598.15
2019-04-11T13:09:22.687Z,101595.70
2019-04-11T13:11:52.563Z,101606.02
2019-04-11T13:14:25.310Z,101608.20
2019-04-11T13:17:04.296Z,101608.39
2019-04-11T13:19:37.137Z,101502.53
2019-04-11T13:22:12.962Z,101581.17
2019-04-11T13:24:42.814Z,101600.74
2019-04-11T13:27:15.615Z,101600.80
2019-04-11T13:29:45.484Z,101596.20
2019-04-11T13:32:30.427Z,101585.94
2019-04-11T13:35:17.819Z,101593.23
2019-04-11T13:38:03.797Z,101597.16
2019-04-11T13:40:33.909Z,101594.08
2019-04-11T13:43:19.993Z,101590.30
2019-04-11T13:45:52.816Z,101587.38
2019-04-11T13:48:38.551Z,101591.14
2019-04-11T13:51:26.678Z,101589.80
2019-04-11T13:54:12.678Z,101576.09
2019-04-11T13:56:59.052Z,101586.64
2019-04-11T13:59:34.881Z,101580.50
2019-04-11T14:02:14.083Z,101583.59
2019-04-11T14:04:55.968Z,101578.10
2019-04-11T14:07:29.276Z,101585.05
2019-04-11T14:10:01.697Z,101580.39
2019-04-11T14:12:29.052Z,101575.69
2019-04-11T14:14:58.909Z,101560.05
2019-04-11T14:17:43.340Z,101551.86
2019-04-11T14:20:13.199Z,101562.63
2019-04-11T14:22:55.122Z,101555.09
2019-04-11T14:25:33.817Z,101563.52
2019-04-11T14:28:03.670Z,101559.61
2019-04-11T14:30:52.242Z,101560.13
2019-04-11T14:33:23.577Z,101553.41
2019-04-11T14:35:51.329Z,101558.80
2019-04-11T14:38:24.151Z,101563.49
2019-04-11T14:41:02.104Z,101551.92
2019-04-11T14:43:38.147Z,101557.55
2019-04-11T14:46:24.585Z,101558.58
2019-04-11T14:48:54.859Z,101565.03
2019-04-11T14:51:24.699Z,101559.84
2019-04-11T14:54:03.596Z,101558.31
2019-04-11T14:56:33.468Z,101551.22
2019-04-11T14:59:24.730Z,101556.15
2019-04-11T15:01:57.262Z,101544.56
2019-04-11T15:04:43.962Z,101551.31
2019-04-11T15:07:15.529Z,101547.66
2019-04-11T15:09:48.422Z,101558.55
2019-04-11T15:12:18.455Z,101550.14
2019-04-11T15:14:54.001Z,101560.86
2019-04-11T15:17:26.412Z,101553.45
2019-04-11T15:19:56.651Z,101559.37
2019-04-11T15:22:26.517Z,101551.37
2019-04-11T15:24:58.871Z,101548.73
2019-04-11T15:27:50.621Z,101556.06
2019-04-11T15:30:23.489Z,101545.87
2019-04-11T15:33:05.290Z,101558.08
2019-04-11T15:35:43.625Z,101554.48
2019-04-11T15:38:39.199Z,101561.55
2019-04-11T15:41:06.395Z,101569.47
2019-04-11T15:43:36.247Z,101563.94
2019-04-11T15:46:06.221Z,101567.84
2019-04-11T15:49:06.555Z,101562.34
2019-04-11T15:51:39.157Z,101564.34
2019-04-11T15:54:15.028Z,101566.07
2019-04-11T15:56:47.929Z,101565.41
2019-04-11T15:59:35.194Z,101562.28
2019-04-11T16:02:17.062Z,101566.05
2019-04-11T16:04:48.774Z,101564.33
2019-04-11T16:07:30.620Z,101566.05
2019-04-11T16:10:00.556Z,101567.98
2019-04-11T16:12:42.406Z,101564.48
2019-04-11T16:15:17.983Z,101560.22
2019-04-11T16:18:04.405Z,101559.72
2019-04-11T16:20:32.746Z,101564.80
2019-04-11T16:23:18.986Z,101561.12
2019-04-11T16:25:48.927Z,101559.77
2019-04-11T16:28:21.465Z,101567.50
2019-04-11T16:30:51.356Z,101568.46
2019-04-11T16:33:30.247Z,101577.34
2019-04-11T16:36:12.912Z,101578.75
2019-04-11T16:38:42.789Z,101581.91
2019-04-11T16:41:23.952Z,101577.33
2019-04-11T16:43:54.873Z,101575.65
2019-04-11T16:46:43.380Z,101584.05
2019-04-11T16:49:11.605Z,101586.72
2019-04-11T16:51:41.372Z,101588.41
2019-04-11T16:54:10.294Z,101588.96
2019-04-11T16:56:38.623Z,101594.55
2019-04-11T16:59:06.866Z,101594.05
2019-04-11T17:01:35.058Z,101594.85
2019-04-11T17:04:03.275Z,101591.84
2019-04-11T17:06:33.184Z,101598.20
2019-04-11T17:09:19.574Z,101598.28
2019-04-11T17:11:48.867Z,101598.20
2019-04-11T17:14:27.706Z,101600.31
2019-04-11T17:16:47.097Z,101604.58
2019-04-11T17:19:15.310Z,101604.51
2019-04-11T17:21:48.011Z,101610.84
2019-04-11T17:24:16.800Z,101608.61
2019-04-11T17:26:43.420Z,101607.20
2019-04-11T17:29:11.644Z,101610.96
2019-04-11T17:31:39.860Z,101612.91
2019-04-11T17:34:08.154Z,101620.60
2019-04-11T17:36:36.365Z,101623.77
2019-04-11T17:39:08.860Z,101620.91
2019-04-11T17:41:36.453Z,101618.89
2019-04-11T17:44:04.695Z,101623.62
2019-04-11T17:46:32.934Z,101624.77
2019-04-11T17:49:01.207Z,101621.02
2019-04-11T17:51:29.443Z,101623.66
2019-04-11T17:53:57.649Z,101633.31
2019-04-11T17:56:25.925Z,101637.56
2019-04-11T17:58:57.646Z,101638.03
2019-04-11T18:01:24.074Z,101635.43
2019-04-11T18:03:52.290Z,101639.36
2019-04-11T18:06:20.535Z,101642.13
2019-04-11T18:08:51.092Z,101647.03
2019-04-11T18:11:18.801Z,101648.34
2019-04-11T18:13:47.074Z,101657.13
2019-04-11T18:16:15.367Z,101655.43
2019-04-11T18:18:43.606Z,101654.11
2019-04-11T18:21:11.847Z,101662.76
2019-04-11T18:23:41.679Z,101672.33
2019-04-11T18:26:10.149Z,101665.70
2019-04-11T18:28:38.385Z,101670.63
2019-04-11T18:31:09.548Z,101673.28
2019-04-11T18:33:37.767Z,101667.21
2019-04-11T18:36:06.018Z,101667.19
2019-04-11T18:38:34.234Z,101668.50
2019-04-11T18:41:08.372Z,101677.61
2019-04-11T18:43:38.245Z,101680.66
2019-04-11T18:46:08.530Z,101680.70
2019-04-11T18:48:36.489Z,101682.02
2019-04-11T18:51:06.425Z,101685.48
2019-04-11T18:53:34.789Z,101690.31
2019-04-11T18:56:03.021Z,101688.13
2019-04-11T18:58:33.717Z,101689.85
2019-04-11T19:01:01.290Z,101691.55
2019-04-11T19:03:36.299Z,101698.50
2019-04-11T19:06:02.859Z,101701.16
2019-04-11T19:08:31.276Z,101702.88
2019-04-11T19:10:59.475Z,101699.44
2019-04-11T19:13:27.704Z,101703.34
2019-04-11T19:15:55.908Z,101704.66
2019-04-11T19:18:24.130Z,101706.83
2019-04-11T19:20:52.353Z,101714.68
2019-04-11T19:23:20.600Z,101711.63
2019-04-11T19:25:48.847Z,101711.61
2019-04-11T19:28:17.058Z,101725.09
2019-04-11T19:30:45.408Z,101724.66
2019-04-11T19:33:13.648Z,101726.41
2019-04-11T19:35:42.267Z,101730.75
2019-04-11T19:38:12.895Z,101722.52
2019-04-11T19:40:41.166Z,101724.68
2019-04-11T19:43:09.374Z,101727.22
2019-04-11T19:45:37.599Z,101725.48
2019-04-11T19:48:05.814Z,101736.77
2019-04-11T19:50:34.038Z,101732.77
2019-04-11T19:53:03.003Z,101742.39
2019-04-11T19:55:36.117Z,101731.52
2019-04-11T19:58:04.398Z,101733.59
2019-04-11T20:00:33.113Z,101731.05
2019-04-11T20:03:01.327Z,101734.91
2019-04-11T20:05:29.553Z,101735.39
2019-04-11T20:07:58.064Z,101738.34
2019-04-11T20:10:26.308Z,101736.20
2019-04-11T20:12:54.488Z,101746.67
2019-04-11T20:15:22.706Z,101735.36
2019-04-11T20:17:51.942Z,101739.16
2019-04-11T20:20:20.438Z,101737.44
2019-04-11T20:22:58.234Z,101735.63
2019-04-11T20:25:18.595Z,101739.05
2019-04-11T20:27:48.135Z,101736.36
2019-04-11T20:30:16.758Z,101734.68
2019-04-11T20:32:45.038Z,101743.36
2019-04-11T20:35:13.247Z,101742.95
2019-04-11T20:37:44.417Z,101745.92
2019-04-11T20:40:11.412Z,101754.55
2019-04-11T20:42:44.018Z,101753.29
2019-04-11T20:45:12.381Z,101751.03
2019-04-11T20:47:40.583Z,101754.40
2019-04-11T20:50:08.795Z,101750.94
2019-04-11T20:52:40.558Z,101757.42
2019-04-11T20:55:09.779Z,101758.31
2019-04-11T20:57:40.490Z,101760.39
2019-04-11T21:00:12.095Z,101762.14
2019-04-11T21:02:39.787Z,101768.70
2019-04-11T21:05:07.983Z,101774.27
2019-04-11T21:07:39.010Z,101775.96
2019-04-11T21:10:06.455Z,101777.56
2019-04-11T21:12:36.977Z,101768.89
2019-04-11T21:15:07.910Z,101765.37
2019-04-11T21:17:36.204Z,101771.55
2019-04-11T21:20:06.346Z,101768.39
2019-04-11T21:22:34.568Z,101770.31
2019-04-11T21:25:02.768Z,101770.24
2019-04-11T21:27:30.994Z,101773.77
2019-04-11T21:30:00.494Z,101769.97
2019-04-11T21:32:31.849Z,101767.61
2019-04-11T21:35:02.317Z,101770.34
2019-04-11T21:37:30.669Z,101771.98
2019-04-11T21:40:00.572Z,101775.86
2019-04-11T21:42:30.012Z,101776.59
2019-04-11T21:44:58.309Z,101777.05
2019-04-11T21:47:27.471Z,101781.47
2019-04-11T21:49:55.672Z,101780.54
2019-04-11T21:52:25.546Z,101785.22
2019-04-11T21:54:53.660Z,101782.54
2019-04-11T21:57:21.877Z,101785.83
2019-04-11T21:59:51.482Z,101779.08
2019-04-11T22:02:23.894Z,101784.81
2019-04-11T22:04:50.375Z,101784.45
2019-04-11T22:07:18.542Z,101782.70
2019-04-11T22:09:46.754Z,101782.21
2019-04-11T22:12:14.948Z,101773.48
2019-04-11T22:14:44.094Z,101776.61
2019-04-11T22:17:15.121Z,101777.91
2019-04-11T22:19:45.833Z,101773.28
2019-04-11T22:22:12.215Z,101771.16
2019-04-11T22:24:40.444Z,101772.59
2019-04-11T22:27:08.635Z,101776.52
2019-04-11T22:29:36.872Z,101773.52
2019-04-11T22:32:05.083Z,101772.53
2019-04-11T22:34:43.739Z,101779.13
2019-04-11T22:37:13.132Z,101771.23
2019-04-11T22:39:41.741Z,101777.21
2019-04-11T22:42:10.085Z,101781.27
2019-04-11T22:44:40.154Z,101778.63
2019-04-11T22:47:08.687Z,101774.05
2019-04-11T22:49:39.499Z,101776.52
2019-04-11T22:52:06.956Z,101776.89
2019-04-11T22:54:35.169Z,101775.18
2019-04-11T22:57:03.362Z,101770.34
2019-04-11T22:59:31.574Z,101773.03
2019-04-11T23:02:01.418Z,101775.72
2019-04-11T23:04:29.668Z,101769.53
2019-04-11T23:06:57.827Z,101767.78
2019-04-11T23:09:28.863Z,101778.23
2019-04-11T23:11:57.074Z,101770.02
2019-04-11T23:14:25.342Z,101775.58
2019-04-11T23:16:53.714Z,101775.80
2019-04-11T23:19:21.931Z,101777.78
2019-04-11T23:21:50.121Z,101777.02
2019-04-11T23:24:18.343Z,101778.67
2019-04-11T23:26:46.526Z,101772.86
2019-04-11T23:29:16.188Z,101778.87
2019-04-11T23:31:44.678Z,101778.19
2019-04-11T23:34:12.896Z,101787.65
2019-04-11T23:36:41.091Z,101780.22
2019-04-11T23:39:09.289Z,101785.90
2019-04-11T23:41:37.537Z,101789.31
2019-04-11T23:44:05.739Z,101787.77
2019-04-11T23:46:33.964Z,101791.46
2019-04-11T23:49:03.901Z,101800.56
2019-04-11T23:51:32.119Z,101797.10
2019-04-11T23:54:00.342Z,101799.56
2019-04-11T23:56:30.600Z,101800.50
2019-04-11T23:59:01.726Z,101800.46
